Saturday, December 15, 2018, 11:05 PM EST
Back to Local

KTTN, Trenton Mercer County Airport

Location: Trenton, NJ, United States Lat: 40.283
Local Time: 11:05 PM EST ( 4:05 GMT) Lon: -74.817
Time Zone: US/Eastern Elev: 213 ft

Show me the last for .
Show Decoded

2018-12-15 22:53 METAR KTTN 160353Z AUTO 07015G23KT 10SM OVC029 09/05 A3004 RMK AO2 RAB09E26
                 SLP168 P0000 T00940050 =
2018-12-15 22:05 METAR KTTN 160305Z AUTO 07017KT 10SM OVC028 10/04 A3005 RMK AO2 T01000044 =
2018-12-15 21:53 METAR KTTN 160253Z 06012G19KT 10SM OVC030 10/04 A3005 RMK AO2 SLP169 60000
                 T01000044 58004 =
2018-12-15 20:53 METAR KTTN 160153Z 06011KT 10SM OVC027 10/04 A3007 RMK AO2 SLP178 T01000044 =
2018-12-15 19:53 METAR KTTN 160053Z 03006KT 10SM OVC028 10/05 A3010 RMK AO2 RAB23E38 SLP188 P0000
                 T01000050 =
2018-12-15 19:03 METAR KTTN 160003Z 05010KT 10SM BKN027 10/05 A3007 RMK AO2 T01000050 =
2018-12-15 18:53 METAR KTTN 152353Z 05009G17KT 10SM SCT025 10/06 A3006 RMK AO2 SLP173 T01000056
                 10111 20094 51006 =
2018-12-15 17:53 METAR KTTN 152253Z 04006KT 10SM FEW041 10/06 A3006 RMK AO2 SLP172 T01000056 =
2018-12-15 16:53 METAR KTTN 152153Z 05008KT 10SM SCT022 SCT028 OVC039 11/06 A3006 RMK AO2 SLP172
                 T01060061 =
2018-12-15 16:00 METAR KTTN 152100Z 07008KT 10SM OVC020 11/08 A3005 RMK AO2 T01110078 =
2018-12-15 15:53 METAR KTTN 152053Z 05009KT 10SM BKN008 BKN018 OVC034 11/08 A3004 RMK AO2 SLP167
                 T01110083 58015 =
2018-12-15 15:02 METAR KTTN 152002Z 04012G18KT 7SM BKN008 BKN018 OVC034 11/09 A3004 RMK AO2
                 T01060094 =
2018-12-15 14:53 METAR KTTN 151953Z 05011KT 7SM SCT008 BKN018 OVC034 11/09 A3005 RMK AO2 SLP171
                 T01060094 =
2018-12-15 14:43 METAR KTTN 151943Z 04010G16KT 7SM BKN008 OVC018 11/09 A3006 RMK AO2 CIG 006V011
                 T01060094 =
2018-12-15 14:04 METAR KTTN 151904Z 03009KT 6SM BR SCT006 OVC020 11/09 A3007 RMK AO2 T01060094 =
2018-12-15 13:53 METAR KTTN 151853Z 04007KT 5SM BR BKN005 OVC020 11/10 A3008 RMK AO2 SLP179
                 T01060100 =
2018-12-15 12:53 METAR KTTN 151753Z 05007KT 6SM BR BKN005 BKN010 OVC018 10/09 A3009 RMK AO2
                 RAB1655E25 SLP182 P0000 60000 T01000094 10100 20089 56017 =
2018-12-15 12:36 METAR KTTN 151736Z 02009KT 4SM BR BKN005 BKN012 OVC017 10/09 A3008 RMK AO2
                 RAB1655E25 P0000 T01000094 =
2018-12-15 12:30 METAR KTTN 151730Z 03008KT 3SM BR SCT005 OVC017 10/09 A3008 RMK AO2 RAB1655E25
                 P0000 T01000094 =
2018-12-15 12:18 METAR KTTN 151718Z 02008KT 2SM -RA BR BKN005 OVC015 10/09 A3008 RMK AO2 RAB1655
                 P0000 T01000089 =
2018-12-15 12:06 METAR KTTN 151706Z 02007KT 2SM -RA BR BKN004 OVC013 10/09 A3009 RMK AO2 RAB1655
                 P0000 T01000094 =
2018-12-15 11:53 METAR KTTN 151653Z 03007KT 1 3/4SM BR BKN004 OVC009 10/09 A3010 RMK AO2 SLP187
                 T01000094 =
2018-12-15 10:53 METAR KTTN 151553Z 04010KT 1 3/4SM BR OVC003 09/09 A3011 RMK AO2 SLP193
                 T00940089 =
2018-12-15 09:53 METAR KTTN 151453Z 03011KT 1 1/4SM BR OVC003 09/09 A3014 RMK AO2 RAE04 SLP199
                 P0000 60000 T00940089 56001 =
2018-12-15 09:27 METAR KTTN 151427Z 04008KT 1 3/4SM BR BKN002 OVC012 10/09 A3014 RMK AO2 RAE04
                 P0000 T01000094 =
2018-12-15 09:16 METAR KTTN 151416Z 05008KT 2SM BR SCT002 OVC011 10/09 A3014 RMK AO2 RAE04 P0000
                 T01000094 =
2018-12-15 09:10 METAR KTTN 151410Z 06009KT 1 1/4SM BR BKN002 OVC011 09/09 A3013 RMK AO2 RAE04
                 P0000 T00940094 =
2018-12-15 08:53 METAR KTTN 151353Z 01008KT 3/4SM -RA BR OVC002 09/09 A3015 RMK AO2 RAB53 SLP202
                 P0000 T00940089 =
2018-12-15 08:32 METAR KTTN 151332Z 04007KT 1 1/2SM BR OVC002 09/09 A3014 RMK AO2 T00940089 =
2018-12-15 08:18 METAR KTTN 151318Z 04009KT 3/4SM BR OVC002 09/09 A3014 RMK AO2 T00890089 =
2018-12-15 08:02 METAR KTTN 151302Z 02005KT 1 1/4SM BR OVC002 09/09 A3013 RMK AO2 T00940089 =
2018-12-15 07:53 METAR KTTN 151253Z 04006KT 3/4SM BR OVC002 09/09 A3013 RMK AO2 RAE08 SLP196
                 P0000 T00890089 =
2018-12-15 07:11 METAR KTTN 151211Z 03007KT 3/4SM BR VV002 09/08 A3013 RMK AO2 RAE08 P0000
                 T00890083 =
2018-12-15 06:53 METAR KTTN 151153Z 03009KT 1SM -RA BR VV002 09/08 A3014 RMK AO2 RAE06B27 SLP200
                 P0001 60006 70023 T00890083 10089 20083 56015 =
2018-12-15 06:45 METAR KTTN 151145Z 02008KT 1SM -RA BR VV002 09/08 A3015 RMK AO2 RAE06B27 P0001
                 T00890083 =
2018-12-15 05:53 METAR KTTN 151053Z 12003KT 1/2SM -RA FG VV002 09/09 A3014 RMK AO2 RAB10 SLP200
                 P0000 T00890089 =
2018-12-15 05:03 METAR KTTN 151003Z AUTO 00000KT 1/2SM FG VV003 09/09 A3015 RMK AO2 T00890089 =
2018-12-15 04:53 METAR KTTN 150953Z AUTO 11003KT 1SM BR OVC003 09/08 A3015 RMK AO2 RAE0854 SLP205
                 P0000 T00890083 =
2018-12-15 04:45 METAR KTTN 150945Z AUTO 07004KT 1 3/4SM BR OVC003 09/08 A3016 RMK AO2 RAE0854
                 P0000 T00890083 =
2018-12-15 04:02 METAR KTTN 150902Z AUTO 02004KT 6SM BR OVC004 09/08 A3018 RMK AO2 RAE0854 P0000
                 T00890083 =
2018-12-15 03:53 METAR KTTN 150853Z AUTO 02003KT 6SM -RA BR OVC005 09/08 A3018 RMK AO2 SLP215
                 P0001 60005 T00890083 55008 =
2018-12-15 03:50 METAR KTTN 150850Z AUTO 03004KT 6SM -RA BR OVC005 09/08 A3018 RMK AO2 P0001 =
2018-12-15 03:21 METAR KTTN 150821Z AUTO 00000KT 6SM -RA BR OVC004 09/08 A3019 RMK AO2 P0001
                 T00890083 =
2018-12-15 02:53 METAR KTTN 150753Z AUTO 00000KT 6SM -RA BR OVC006 09/08 A3020 RMK AO2 SLP222
                 P0001 T00890083 =
2018-12-15 01:53 METAR KTTN 150653Z AUTO 02003KT 3SM -RA BR OVC009 09/08 A3021 RMK AO2 SLP223
                 P0003 T00890083 =
2018-12-15 01:48 METAR KTTN 150648Z AUTO 00000KT 2 1/2SM -RA BR FEW002 OVC009 09/08 A3021 RMK AO2
                 P0003 =
2018-12-15 01:40 METAR KTTN 150640Z AUTO 03003KT 2SM -RA BR SCT002 OVC011 09/08 A3020 RMK AO2
                 P0002 T00890083 =
2018-12-15 01:12 METAR KTTN 150612Z AUTO 35003KT 2 1/2SM -RA BR OVC002 09/08 A3021 RMK AO2 P0001
                 T00890083 =
2018-12-15 01:02 METAR KTTN 150602Z AUTO 00000KT 1 3/4SM -RA BR BKN002 OVC030 09/08 A3021 RMK AO2
                 P0000 T00890083 =
2018-12-15 00:53 METAR KTTN 150553Z AUTO 36003KT 3SM -RA BR BKN002 OVC033 09/08 A3021 RMK AO2
                 SLP223 P0002 60016 T00890083 10094 20083 56015 =
2018-12-15 00:26 METAR KTTN 150526Z AUTO 00000KT 3SM -RA BR FEW003 FEW009 OVC036 09/08 A3021 RMK
                 AO2 P0001 T00890083 =
2018-12-15 00:17 METAR KTTN 150517Z AUTO 00000KT 4SM -RA BR FEW003 BKN016 OVC038 09/08 A3022 RMK
                 AO2 P0001 T00890083 =
2018-12-14 23:53 METAR KTTN 150453Z AUTO 07003KT 3SM -RA BR OVC016 09/08 A3023 RMK AO2 SLP229
                 P0006 T00890083 401110022 =
2018-12-14 23:45 METAR KTTN 150445Z AUTO 07004KT 2 1/2SM -RA BR BKN018 OVC027 09/08 A3022 RMK AO2
                 P0005 T00890083 =
2018-12-14 23:24 METAR KTTN 150424Z AUTO 00000KT 1 3/4SM RA BR FEW016 BKN026 OVC032 09/08 A3024
                 RMK AO2 P0004 T00890083 =
2018-12-14 23:20 METAR KTTN 150420Z AUTO 00000KT 2SM RA BR SCT016 OVC030 09/08 A3025 RMK AO2
                 P0003 T00890083 =
2018-12-14 23:17 METAR KTTN 150417Z AUTO 00000KT 1 1/2SM RA BR SCT016 SCT021 OVC033 09/08 A3025
                 RMK AO2 P0003 T00890083 =

Support USWX by starting your Amazon purchase here.